GFA2765 OPLA-OEDF
Flight info
| Callsign | GFA2765 |
|---|---|
| Flight time | N/A |
| Altitude | 38000 |
| Route | VEREN G214 PG/N0491F400 G665 ASVIB N312 LVA N570 MIDSI A453 SOLOB M556 NARMI |
| Aircraft | B789/H-SDE1E2E3FGHIJ2J3J4J5M1RWXY/LB1D1 |
Departure
| Time | 2026-04-26 19:12 |
|---|---|
| Airport | Allama Iqbal International Airport (OPLA) |
Arrival
| Time | N/A |
|---|---|
| Airport | King Fahd International Airport (OEDF) |
| Time | Latitude | Longitude | Altitude | Speed | Heading |
|---|---|---|---|---|---|
| 2026-04-26 18:49 | 31.51868 | 74.40975 | 724 ft | 0 kts | 52° |
| 2026-04-26 19:03 | 31.51859 | 74.40961 | 726 ft | 2 kts | 54° |
| 2026-04-26 19:03 | 31.51850 | 74.40945 | 725 ft | 2 kts | 58° |
| 2026-04-26 19:03 | 31.51842 | 74.40928 | 724 ft | 2 kts | 62° |
| 2026-04-26 19:04 | 31.51835 | 74.40911 | 722 ft | 2 kts | 67° |
| 2026-04-26 19:04 | 31.51829 | 74.40893 | 721 ft | 2 kts | 76° |
| 2026-04-26 19:04 | 31.51827 | 74.40873 | 722 ft | 2 kts | 89° |
| 2026-04-26 19:04 | 31.51829 | 74.40854 | 723 ft | 2 kts | 111° |
| 2026-04-26 19:05 | 31.51844 | 74.40836 | 722 ft | 0 kts | 167° |
| 2026-04-26 19:06 | 31.51841 | 74.40837 | 723 ft | 1 kts | 167° |
| 2026-04-26 19:06 | 31.51824 | 74.40840 | 723 ft | 4 kts | 173° |
| 2026-04-26 19:06 | 31.51777 | 74.40839 | 725 ft | 9 kts | 185° |
| 2026-04-26 19:07 | 31.51723 | 74.40799 | 724 ft | 10 kts | 240° |
| 2026-04-26 19:07 | 31.51711 | 74.40713 | 724 ft | 12 kts | 257° |
| 2026-04-26 19:07 | 31.51649 | 74.40657 | 725 ft | 13 kts | 187° |
| 2026-04-26 19:07 | 31.51548 | 74.40654 | 724 ft | 16 kts | 181° |
| 2026-04-26 19:08 | 31.51423 | 74.40652 | 726 ft | 20 kts | 181° |
| 2026-04-26 19:08 | 31.51275 | 74.40652 | 723 ft | 23 kts | 180° |
| 2026-04-26 19:08 | 31.51105 | 74.40649 | 723 ft | 26 kts | 182° |
| 2026-04-26 19:08 | 31.50916 | 74.40642 | 722 ft | 28 kts | 182° |
| 2026-04-26 19:09 | 31.50749 | 74.40603 | 723 ft | 16 kts | 214° |
| 2026-04-26 19:09 | 31.50733 | 74.40587 | 723 ft | 0 kts | 222° |
| 2026-04-26 19:09 | 31.50733 | 74.40586 | 723 ft | 1 kts | 223° |
| 2026-04-26 19:09 | 31.50717 | 74.40569 | 724 ft | 5 kts | 225° |
| 2026-04-26 19:10 | 31.50682 | 74.40523 | 725 ft | 10 kts | 235° |
| 2026-04-26 19:10 | 31.50677 | 74.40446 | 722 ft | 8 kts | 306° |
| 2026-04-26 19:10 | 31.50727 | 74.40432 | 723 ft | 9 kts | 2° |
| 2026-04-26 19:10 | 31.50750 | 74.40432 | 723 ft | 7 kts | 1° |
| 2026-04-26 19:11 | 31.50989 | 74.40437 | 723 ft | 65 kts | 1° |
| 2026-04-26 19:11 | 31.51642 | 74.40449 | 724 ft | 122 kts | 0° |
| 2026-04-26 19:11 | 31.52658 | 74.40464 | 727 ft | 168 kts | 0° |
| 2026-04-26 19:11 | 31.53924 | 74.40486 | 1053 ft | 182 kts | 358° |
| 2026-04-26 19:12 | 31.55206 | 74.40560 | 1835 ft | 185 kts | 1° |
| 2026-04-26 19:12 | 31.56510 | 74.40583 | 2550 ft | 196 kts | 359° |
| 2026-04-26 19:12 | 31.57930 | 74.40252 | 2929 ft | 226 kts | 328° |
| 2026-04-26 19:12 | 31.58938 | 74.38722 | 3454 ft | 256 kts | 287° |
| 2026-04-26 19:13 | 31.58871 | 74.36621 | 4441 ft | 266 kts | 248° |
| 2026-04-26 19:13 | 31.57723 | 74.34968 | 5618 ft | 273 kts | 213° |
| 2026-04-26 19:13 | 31.55911 | 74.34241 | 6677 ft | 282 kts | 193° |
| 2026-04-26 19:13 | 31.53968 | 74.33813 | 7727 ft | 287 kts | 195° |
| 2026-04-26 19:14 | 31.52032 | 74.33194 | 8767 ft | 291 kts | 202° |
| 2026-04-26 19:14 | 31.50161 | 74.32278 | 9813 ft | 293 kts | 210° |
| 2026-04-26 19:14 | 31.48360 | 74.31009 | 10378 ft | 313 kts | 220° |
| 2026-04-26 19:14 | 31.47786 | 74.30460 | 10516 ft | 321 kts | 225° |
| 2026-04-26 19:15 | 31.45102 | 74.27070 | 11066 ft | 363 kts | 232° |
| 2026-04-26 19:15 | 31.43399 | 74.24828 | 11837 ft | 371 kts | 229° |
| 2026-04-26 19:15 | 31.41568 | 74.22677 | 12793 ft | 376 kts | 226° |
| 2026-04-26 19:15 | 31.39719 | 74.20543 | 13688 ft | 381 kts | 227° |
| 2026-04-26 19:16 | 31.37862 | 74.18310 | 14538 ft | 384 kts | 228° |
| 2026-04-26 19:16 | 31.36000 | 74.16040 | 15403 ft | 389 kts | 228° |
| 2026-04-26 19:16 | 31.34098 | 74.13758 | 16254 ft | 393 kts | 227° |
| 2026-04-26 19:16 | 31.32168 | 74.11465 | 17081 ft | 398 kts | 227° |
| 2026-04-26 19:17 | 31.30223 | 74.09143 | 17886 ft | 402 kts | 227° |
| 2026-04-26 19:17 | 31.28261 | 74.06791 | 18610 ft | 406 kts | 227° |
| 2026-04-26 19:17 | 31.26313 | 74.04460 | 19353 ft | 408 kts | 227° |
| 2026-04-26 19:17 | 31.24358 | 74.02042 | 20067 ft | 409 kts | 232° |
| 2026-04-26 19:18 | 31.22522 | 73.99484 | 20748 ft | 412 kts | 231° |
| 2026-04-26 19:18 | 31.20651 | 73.96937 | 21456 ft | 415 kts | 231° |
| 2026-04-26 19:18 | 31.18763 | 73.94372 | 22140 ft | 418 kts | 231° |
| 2026-04-26 19:18 | 31.16872 | 73.91783 | 22808 ft | 420 kts | 231° |
| 2026-04-26 19:19 | 31.14967 | 73.89173 | 23418 ft | 423 kts | 231° |
| 2026-04-26 19:19 | 31.13051 | 73.86557 | 23930 ft | 426 kts | 231° |
| 2026-04-26 19:19 | 31.11112 | 73.83918 | 24423 ft | 430 kts | 231° |
| 2026-04-26 19:19 | 31.09160 | 73.81257 | 24900 ft | 433 kts | 231° |
| 2026-04-26 19:20 | 31.07220 | 73.78612 | 25387 ft | 436 kts | 231° |
| 2026-04-26 19:20 | 31.06550 | 73.77699 | 25539 ft | 437 kts | 231° |
| 2026-04-26 19:20 | 31.03241 | 73.73198 | 26314 ft | 443 kts | 231° |
| 2026-04-26 19:20 | 31.01229 | 73.70464 | 26764 ft | 446 kts | 231° |
| 2026-04-26 19:21 | 30.99203 | 73.67711 | 27218 ft | 449 kts | 231° |
| 2026-04-26 19:21 | 30.97166 | 73.64945 | 27654 ft | 452 kts | 231° |
| 2026-04-26 19:21 | 30.95111 | 73.62159 | 28066 ft | 455 kts | 231° |
| 2026-04-26 19:21 | 30.93041 | 73.59353 | 28488 ft | 457 kts | 231° |
| 2026-04-26 19:22 | 30.90962 | 73.56538 | 28893 ft | 460 kts | 231° |
| 2026-04-26 19:22 | 30.88896 | 73.53741 | 29277 ft | 463 kts | 231° |
| 2026-04-26 19:22 | 30.86789 | 73.50891 | 29665 ft | 466 kts | 231° |
| 2026-04-26 19:22 | 30.84669 | 73.48027 | 30006 ft | 468 kts | 231° |
| 2026-04-26 19:23 | 30.82540 | 73.45152 | 30340 ft | 470 kts | 231° |
| 2026-04-26 19:23 | 30.80416 | 73.42285 | 30681 ft | 471 kts | 231° |
| 2026-04-26 19:23 | 30.78272 | 73.39394 | 30985 ft | 473 kts | 231° |
| 2026-04-26 19:23 | 30.76120 | 73.36494 | 31300 ft | 474 kts | 232° |
| 2026-04-26 19:24 | 30.73960 | 73.33586 | 31585 ft | 476 kts | 232° |
| 2026-04-26 19:24 | 30.71822 | 73.30710 | 31873 ft | 477 kts | 232° |
| 2026-04-26 19:24 | 30.67537 | 73.24952 | 32756 ft | 473 kts | 232° |
| 2026-04-26 19:25 | 30.65411 | 73.22047 | 33168 ft | 471 kts | 233° |
| 2026-04-26 19:25 | 30.64703 | 73.21065 | 33316 ft | 470 kts | 233° |
| 2026-04-26 19:25 | 30.61215 | 73.16250 | 34001 ft | 467 kts | 233° |
| 2026-04-26 19:25 | 30.59109 | 73.13386 | 34341 ft | 466 kts | 233° |
| 2026-04-26 19:26 | 30.57011 | 73.10526 | 34668 ft | 465 kts | 233° |
| 2026-04-26 19:26 | 30.54925 | 73.07666 | 34996 ft | 464 kts | 233° |
| 2026-04-26 19:26 | 30.52872 | 73.04857 | 35313 ft | 463 kts | 233° |
| 2026-04-26 19:26 | 30.50784 | 73.02011 | 35616 ft | 462 kts | 233° |
| 2026-04-26 19:27 | 30.48702 | 72.99175 | 35931 ft | 461 kts | 233° |
| 2026-04-26 19:27 | 30.46624 | 72.96343 | 36221 ft | 461 kts | 233° |
| 2026-04-26 19:27 | 30.44551 | 72.93517 | 36515 ft | 460 kts | 233° |
| 2026-04-26 19:27 | 30.42474 | 72.90692 | 36803 ft | 460 kts | 233° |
| 2026-04-26 19:28 | 30.40401 | 72.87874 | 37078 ft | 459 kts | 233° |
| 2026-04-26 19:28 | 30.39032 | 72.86014 | 37264 ft | 459 kts | 233° |
| 2026-04-26 19:28 | 30.36960 | 72.83199 | 37549 ft | 458 kts | 233° |
| 2026-04-26 19:28 | 30.34215 | 72.79474 | 37683 ft | 462 kts | 233° |
| 2026-04-26 19:29 | 30.30049 | 72.73830 | 37699 ft | 459 kts | 232° |
| 2026-04-26 19:29 | 30.25912 | 72.68229 | 37692 ft | 457 kts | 232° |
| 2026-04-26 19:30 | 30.21777 | 72.62641 | 37696 ft | 458 kts | 232° |
| 2026-04-26 19:30 | 30.19029 | 72.58935 | 37694 ft | 458 kts | 232° |
| 2026-04-26 19:31 | 30.13422 | 72.51564 | 37687 ft | 459 kts | 232° |
| 2026-04-26 19:31 | 30.09219 | 72.45995 | 37687 ft | 460 kts | 232° |
| 2026-04-26 19:32 | 30.05704 | 72.41373 | 37684 ft | 461 kts | 232° |
| 2026-04-26 19:32 | 30.01481 | 72.35814 | 37687 ft | 461 kts | 232° |
| 2026-04-26 19:33 | 29.97250 | 72.30254 | 37679 ft | 461 kts | 232° |
| 2026-04-26 19:33 | 29.93019 | 72.24702 | 37675 ft | 461 kts | 232° |
| 2026-04-26 19:34 | 29.88817 | 72.19196 | 37676 ft | 460 kts | 232° |
| 2026-04-26 19:34 | 29.84599 | 72.13677 | 37675 ft | 459 kts | 232° |
| 2026-04-26 19:35 | 29.80374 | 72.08155 | 37669 ft | 460 kts | 232° |
| 2026-04-26 19:35 | 29.76137 | 72.02627 | 37674 ft | 460 kts | 232° |
| 2026-04-26 19:36 | 29.72618 | 71.98042 | 37671 ft | 460 kts | 232° |
| 2026-04-26 19:36 | 29.67676 | 71.91610 | 37671 ft | 459 kts | 232° |
| 2026-04-26 19:37 | 29.63473 | 71.86147 | 37668 ft | 459 kts | 232° |
| 2026-04-26 19:37 | 29.59246 | 71.80662 | 37666 ft | 458 kts | 232° |
| 2026-04-26 19:38 | 29.55021 | 71.75187 | 37666 ft | 458 kts | 232° |
| 2026-04-26 19:38 | 29.50795 | 71.69718 | 37666 ft | 459 kts | 232° |
| 2026-04-26 19:39 | 29.46585 | 71.64276 | 37664 ft | 459 kts | 232° |
| 2026-04-26 19:39 | 29.42351 | 71.58811 | 37660 ft | 459 kts | 232° |
| 2026-04-26 19:40 | 29.38100 | 71.53333 | 37664 ft | 459 kts | 232° |
| 2026-04-26 19:40 | 29.33853 | 71.47866 | 37664 ft | 459 kts | 232° |
| 2026-04-26 19:41 | 29.29632 | 71.42441 | 37662 ft | 459 kts | 232° |
| 2026-04-26 19:41 | 29.26034 | 71.37902 | 37663 ft | 459 kts | 231° |
| 2026-04-26 19:42 | 29.21013 | 71.31634 | 37663 ft | 460 kts | 231° |
| 2026-04-26 19:42 | 29.16708 | 71.26234 | 37662 ft | 459 kts | 231° |
| 2026-04-26 19:43 | 29.12394 | 71.20849 | 37663 ft | 459 kts | 231° |
| 2026-04-26 19:43 | 29.08105 | 71.15490 | 37660 ft | 460 kts | 231° |
| 2026-04-26 19:44 | 29.03779 | 71.10100 | 37659 ft | 460 kts | 231° |
| 2026-04-26 19:44 | 28.99457 | 71.04717 | 37657 ft | 459 kts | 231° |
| 2026-04-26 19:45 | 28.95165 | 70.99382 | 37661 ft | 459 kts | 231° |
| 2026-04-26 19:45 | 28.90845 | 70.94017 | 37661 ft | 459 kts | 231° |
| 2026-04-26 19:46 | 28.86528 | 70.88663 | 37662 ft | 459 kts | 231° |
| 2026-04-26 19:46 | 28.82197 | 70.83299 | 37659 ft | 459 kts | 231° |
| 2026-04-26 19:47 | 28.78599 | 70.78848 | 37661 ft | 460 kts | 231° |
| 2026-04-26 19:47 | 28.73554 | 70.72617 | 37656 ft | 460 kts | 230° |
| 2026-04-26 19:48 | 28.69209 | 70.67257 | 37660 ft | 460 kts | 230° |
| 2026-04-26 19:48 | 28.64871 | 70.61912 | 37664 ft | 460 kts | 230° |
| 2026-04-26 19:49 | 28.60523 | 70.56563 | 37655 ft | 461 kts | 230° |
| 2026-04-26 19:49 | 28.56174 | 70.51219 | 37661 ft | 460 kts | 230° |
| 2026-04-26 19:50 | 28.51852 | 70.45915 | 37655 ft | 460 kts | 230° |
| 2026-04-26 19:50 | 28.47506 | 70.40589 | 37659 ft | 460 kts | 230° |
| 2026-04-26 19:51 | 28.43147 | 70.35254 | 37658 ft | 461 kts | 230° |
| 2026-04-26 19:51 | 28.38785 | 70.29922 | 37650 ft | 461 kts | 230° |
| 2026-04-26 19:52 | 28.35226 | 70.23971 | 37684 ft | 456 kts | 246° |
| 2026-04-26 19:52 | 28.32462 | 70.17533 | 37654 ft | 457 kts | 246° |
| 2026-04-26 19:53 | 28.29688 | 70.11042 | 37654 ft | 457 kts | 246° |
| 2026-04-26 19:53 | 28.26899 | 70.04558 | 37668 ft | 457 kts | 246° |
| 2026-04-26 19:54 | 28.24117 | 69.98082 | 37670 ft | 457 kts | 246° |
| 2026-04-26 19:54 | 28.21325 | 69.91604 | 37668 ft | 458 kts | 246° |
| 2026-04-26 19:55 | 28.18543 | 69.85154 | 37670 ft | 458 kts | 245° |
| 2026-04-26 19:55 | 28.15741 | 69.78669 | 37666 ft | 459 kts | 245° |
| 2026-04-26 19:56 | 28.12930 | 69.72173 | 37669 ft | 460 kts | 245° |
| 2026-04-26 19:56 | 28.10111 | 69.65672 | 37668 ft | 460 kts | 245° |
| 2026-04-26 19:57 | 28.07288 | 69.59169 | 37667 ft | 460 kts | 245° |
| 2026-04-26 19:57 | 28.04484 | 69.52721 | 37669 ft | 460 kts | 245° |
| 2026-04-26 19:58 | 28.01657 | 69.46231 | 37665 ft | 459 kts | 245° |
| 2026-04-26 19:58 | 27.98831 | 69.39755 | 37661 ft | 459 kts | 245° |
| 2026-04-26 19:59 | 27.95999 | 69.33274 | 37662 ft | 460 kts | 245° |
| 2026-04-26 19:59 | 27.93182 | 69.26839 | 37658 ft | 459 kts | 245° |
| 2026-04-26 20:00 | 27.90940 | 69.20132 | 37675 ft | 457 kts | 261° |
| 2026-04-26 20:00 | 27.89997 | 69.13012 | 37671 ft | 459 kts | 262° |
| 2026-04-26 20:01 | 27.88970 | 69.05893 | 37668 ft | 459 kts | 262° |
| 2026-04-26 20:01 | 27.87983 | 68.98772 | 37668 ft | 459 kts | 262° |
| 2026-04-26 20:02 | 27.86979 | 68.91693 | 37668 ft | 459 kts | 261° |
| 2026-04-26 20:02 | 27.86143 | 68.85782 | 37670 ft | 459 kts | 262° |
| 2026-04-26 20:03 | 27.84962 | 68.77462 | 37666 ft | 459 kts | 261° |
| 2026-04-26 20:03 | 27.83951 | 68.70377 | 37665 ft | 460 kts | 261° |
| 2026-04-26 20:04 | 27.82928 | 68.63238 | 37666 ft | 460 kts | 261° |
| 2026-04-26 20:04 | 27.81904 | 68.56111 | 37657 ft | 460 kts | 261° |
| 2026-04-26 20:05 | 27.80876 | 68.48987 | 37654 ft | 460 kts | 261° |
| 2026-04-26 20:05 | 27.79843 | 68.41851 | 37657 ft | 461 kts | 261° |
| 2026-04-26 20:06 | 27.78803 | 68.34698 | 37658 ft | 462 kts | 261° |
| 2026-04-26 20:06 | 27.77765 | 68.27588 | 37658 ft | 462 kts | 261° |
| 2026-04-26 20:07 | 27.76717 | 68.20430 | 37655 ft | 462 kts | 261° |
| 2026-04-26 20:07 | 27.75665 | 68.13273 | 37649 ft | 462 kts | 261° |
| 2026-04-26 20:08 | 27.74615 | 68.06156 | 37656 ft | 463 kts | 261° |
| 2026-04-26 20:08 | 27.73554 | 67.98991 | 37651 ft | 463 kts | 261° |
| 2026-04-26 20:09 | 27.72487 | 67.91813 | 37652 ft | 464 kts | 261° |
| 2026-04-26 20:09 | 27.71418 | 67.84649 | 37648 ft | 464 kts | 261° |
| 2026-04-26 20:10 | 27.70344 | 67.77473 | 37657 ft | 464 kts | 261° |
| 2026-04-26 20:10 | 27.69266 | 67.70299 | 37662 ft | 463 kts | 261° |
| 2026-04-26 20:11 | 27.68192 | 67.63178 | 37668 ft | 464 kts | 261° |
| 2026-04-26 20:12 | 27.66566 | 67.52440 | 37692 ft | 463 kts | 261° |
| 2026-04-26 20:12 | 27.65477 | 67.45282 | 37712 ft | 463 kts | 261° |
| 2026-04-26 20:13 | 27.64385 | 67.38135 | 37730 ft | 462 kts | 261° |
| 2026-04-26 20:13 | 27.63300 | 67.31052 | 37748 ft | 462 kts | 261° |
| 2026-04-26 20:14 | 27.62204 | 67.23923 | 37771 ft | 461 kts | 261° |
| 2026-04-26 20:14 | 27.61103 | 67.16792 | 37786 ft | 461 kts | 261° |
| 2026-04-26 20:15 | 27.60000 | 67.09670 | 37808 ft | 461 kts | 262° |
| 2026-04-26 20:15 | 27.58903 | 67.02612 | 37826 ft | 461 kts | 261° |
| 2026-04-26 20:16 | 27.57790 | 66.95474 | 37845 ft | 462 kts | 261° |
| 2026-04-26 20:16 | 27.56675 | 66.88349 | 37855 ft | 461 kts | 262° |
| 2026-04-26 20:17 | 27.55564 | 66.81272 | 37858 ft | 462 kts | 261° |
| 2026-04-26 20:17 | 27.54441 | 66.74146 | 37863 ft | 462 kts | 261° |
| 2026-04-26 20:18 | 27.53315 | 66.67023 | 37866 ft | 461 kts | 261° |
| 2026-04-26 20:18 | 27.52185 | 66.59901 | 37862 ft | 462 kts | 261° |
| 2026-04-26 20:19 | 27.51051 | 66.52780 | 37874 ft | 462 kts | 261° |
| 2026-04-26 20:19 | 27.49921 | 66.45701 | 37876 ft | 462 kts | 261° |
| 2026-04-26 20:20 | 27.48779 | 66.38583 | 37875 ft | 462 kts | 261° |
| 2026-04-26 20:20 | 27.47635 | 66.31468 | 37877 ft | 462 kts | 261° |
| 2026-04-26 20:21 | 27.46486 | 66.24346 | 37873 ft | 462 kts | 261° |
| 2026-04-26 20:21 | 27.45334 | 66.17227 | 37875 ft | 462 kts | 261° |
| 2026-04-26 20:22 | 27.44184 | 66.10151 | 37873 ft | 463 kts | 261° |
| 2026-04-26 20:22 | 27.43023 | 66.03028 | 37871 ft | 462 kts | 261° |
| 2026-04-26 20:23 | 27.41860 | 65.95914 | 37869 ft | 462 kts | 261° |
| 2026-04-26 20:23 | 27.40690 | 65.88783 | 37875 ft | 463 kts | 261° |
| 2026-04-26 20:24 | 27.39526 | 65.81710 | 37875 ft | 463 kts | 261° |
| 2026-04-26 20:24 | 27.38349 | 65.74588 | 37882 ft | 463 kts | 261° |
| 2026-04-26 20:25 | 27.37169 | 65.67468 | 37884 ft | 463 kts | 261° |
| 2026-04-26 20:25 | 27.35995 | 65.60399 | 37883 ft | 463 kts | 261° |
| 2026-04-26 20:26 | 27.34808 | 65.53282 | 37884 ft | 462 kts | 261° |
| 2026-04-26 20:26 | 27.33620 | 65.46184 | 37881 ft | 461 kts | 261° |
| 2026-04-26 20:27 | 27.32430 | 65.39093 | 37876 ft | 461 kts | 261° |
| 2026-04-26 20:27 | 27.31247 | 65.32070 | 37879 ft | 460 kts | 261° |
| 2026-04-26 20:28 | 27.30053 | 65.25003 | 37869 ft | 460 kts | 261° |
| 2026-04-26 20:28 | 27.28855 | 65.17936 | 37873 ft | 461 kts | 261° |
| 2026-04-26 20:29 | 27.27653 | 65.10861 | 37864 ft | 461 kts | 261° |
| 2026-04-26 20:29 | 27.26454 | 65.03831 | 37865 ft | 461 kts | 261° |
| 2026-04-26 20:30 | 27.25242 | 64.96750 | 37861 ft | 461 kts | 261° |
| 2026-04-26 20:30 | 27.24028 | 64.89676 | 37857 ft | 461 kts | 261° |
| 2026-04-26 20:31 | 27.22810 | 64.82602 | 37855 ft | 461 kts | 261° |
| 2026-04-26 20:31 | 27.21597 | 64.75576 | 37854 ft | 461 kts | 261° |
| 2026-04-26 20:32 | 27.20372 | 64.68509 | 37847 ft | 461 kts | 261° |
| 2026-04-26 20:32 | 27.19143 | 64.61435 | 37846 ft | 461 kts | 261° |
| 2026-04-26 20:33 | 27.17912 | 64.54372 | 37841 ft | 461 kts | 261° |
| 2026-04-26 20:33 | 27.16675 | 64.47302 | 37834 ft | 461 kts | 261° |
| 2026-04-26 20:34 | 27.15443 | 64.40278 | 37835 ft | 461 kts | 261° |
| 2026-04-26 20:34 | 27.14202 | 64.33220 | 37826 ft | 461 kts | 261° |
| 2026-04-26 20:35 | 27.12954 | 64.26153 | 37821 ft | 461 kts | 261° |
| 2026-04-26 20:35 | 27.11705 | 64.19096 | 37824 ft | 461 kts | 261° |
| 2026-04-26 20:36 | 27.10460 | 64.12081 | 37820 ft | 462 kts | 261° |
| 2026-04-26 20:36 | 27.09201 | 64.05011 | 37816 ft | 462 kts | 261° |
| 2026-04-26 20:37 | 27.07939 | 63.97948 | 37807 ft | 462 kts | 261° |
| 2026-04-26 20:37 | 27.06672 | 63.90879 | 37812 ft | 462 kts | 261° |
| 2026-04-26 20:38 | 27.05401 | 63.83804 | 37814 ft | 462 kts | 261° |
| 2026-04-26 20:38 | 27.04138 | 63.76800 | 37810 ft | 461 kts | 261° |
| 2026-04-26 20:39 | 27.02864 | 63.69753 | 37805 ft | 461 kts | 261° |
| 2026-04-26 20:39 | 27.01587 | 63.62713 | 37807 ft | 461 kts | 261° |
| 2026-04-26 20:40 | 27.00309 | 63.55682 | 37807 ft | 461 kts | 261° |
| 2026-04-26 20:40 | 26.99033 | 63.48690 | 37807 ft | 460 kts | 261° |
| 2026-04-26 20:41 | 26.97748 | 63.41667 | 37814 ft | 460 kts | 261° |
| 2026-04-26 20:41 | 26.96459 | 63.34641 | 37815 ft | 460 kts | 261° |
| 2026-04-26 20:42 | 26.95453 | 63.27593 | 37835 ft | 457 kts | 266° |
| 2026-04-26 20:42 | 26.94860 | 63.20540 | 37832 ft | 458 kts | 266° |
| 2026-04-26 20:43 | 26.94279 | 63.13436 | 37841 ft | 458 kts | 266° |
| 2026-04-26 20:43 | 26.93687 | 63.06337 | 37844 ft | 457 kts | 266° |
| 2026-04-26 20:44 | 26.93094 | 62.99236 | 37845 ft | 458 kts | 266° |
| 2026-04-26 20:44 | 26.92504 | 62.92216 | 37851 ft | 457 kts | 266° |
| 2026-04-26 20:45 | 26.91901 | 62.85097 | 37852 ft | 457 kts | 266° |
| 2026-04-26 20:45 | 26.91298 | 62.78012 | 37847 ft | 457 kts | 266° |
| 2026-04-26 20:46 | 26.90692 | 62.70931 | 37848 ft | 456 kts | 266° |
| 2026-04-26 20:46 | 26.90086 | 62.63905 | 37846 ft | 456 kts | 266° |
| 2026-04-26 20:47 | 26.89473 | 62.56825 | 37848 ft | 456 kts | 266° |
| 2026-04-26 20:47 | 26.88857 | 62.49758 | 37854 ft | 456 kts | 266° |
| 2026-04-26 20:48 | 26.88237 | 62.42687 | 37855 ft | 456 kts | 266° |
| 2026-04-26 20:48 | 26.87619 | 62.35683 | 37856 ft | 455 kts | 266° |
| 2026-04-26 20:49 | 26.86994 | 62.28630 | 37857 ft | 455 kts | 266° |
| 2026-04-26 20:49 | 26.86367 | 62.21594 | 37859 ft | 455 kts | 266° |
| 2026-04-26 20:50 | 26.85734 | 62.14545 | 37860 ft | 454 kts | 266° |
| 2026-04-26 20:50 | 26.85100 | 62.07504 | 37860 ft | 454 kts | 266° |
| 2026-04-26 20:51 | 26.84465 | 62.00513 | 37862 ft | 454 kts | 266° |
| 2026-04-26 20:51 | 26.83824 | 61.93475 | 37864 ft | 454 kts | 266° |
| 2026-04-26 20:52 | 26.83178 | 61.86436 | 37869 ft | 454 kts | 266° |
| 2026-04-26 20:52 | 26.82530 | 61.79402 | 37868 ft | 454 kts | 266° |
| 2026-04-26 20:53 | 26.81882 | 61.72420 | 37873 ft | 454 kts | 265° |
| 2026-04-26 20:53 | 26.81228 | 61.65402 | 37874 ft | 454 kts | 265° |
| 2026-04-26 20:54 | 26.80571 | 61.58387 | 37873 ft | 453 kts | 265° |
| 2026-04-26 20:54 | 26.79910 | 61.51377 | 37874 ft | 453 kts | 265° |
| 2026-04-26 20:55 | 26.79250 | 61.44409 | 37878 ft | 453 kts | 265° |
| 2026-04-26 20:55 | 26.78582 | 61.37394 | 37881 ft | 453 kts | 265° |
| 2026-04-26 20:56 | 26.77911 | 61.30382 | 37876 ft | 453 kts | 265° |
| 2026-04-26 20:56 | 26.77238 | 61.23385 | 37873 ft | 452 kts | 265° |
| 2026-04-26 20:57 | 26.76566 | 61.16440 | 37873 ft | 452 kts | 265° |
| 2026-04-26 20:57 | 26.75885 | 61.09435 | 37873 ft | 453 kts | 265° |
| 2026-04-26 20:58 | 26.75200 | 61.02423 | 37869 ft | 453 kts | 265° |
| 2026-04-26 20:58 | 26.74512 | 60.95427 | 37870 ft | 453 kts | 265° |
| 2026-04-26 20:59 | 26.73821 | 60.88428 | 37865 ft | 453 kts | 265° |
| 2026-04-26 20:59 | 26.73131 | 60.81469 | 37862 ft | 453 kts | 265° |
| 2026-04-26 21:00 | 26.72431 | 60.74451 | 37855 ft | 454 kts | 265° |
| 2026-04-26 21:00 | 26.71727 | 60.67436 | 37854 ft | 454 kts | 265° |
| 2026-04-26 21:01 | 26.71214 | 60.60422 | 37864 ft | 453 kts | 269° |
| 2026-04-26 21:01 | 26.70944 | 60.53375 | 37864 ft | 454 kts | 269° |
| 2026-04-26 21:02 | 26.70691 | 60.46365 | 37861 ft | 454 kts | 269° |
| 2026-04-26 21:02 | 26.70427 | 60.39322 | 37858 ft | 454 kts | 269° |
| 2026-04-26 21:03 | 26.70160 | 60.32272 | 37854 ft | 453 kts | 269° |
| 2026-04-26 21:03 | 26.69890 | 60.25221 | 37850 ft | 453 kts | 269° |
| 2026-04-26 21:04 | 26.69612 | 60.18235 | 37848 ft | 452 kts | 269° |
| 2026-04-26 21:04 | 26.69330 | 60.11224 | 37842 ft | 451 kts | 269° |
| 2026-04-26 21:05 | 26.69045 | 60.04222 | 37840 ft | 450 kts | 269° |
| 2026-04-26 21:05 | 26.68756 | 59.97222 | 38145 ft | 448 kts | 269° |
| 2026-04-26 21:05 | 26.68612 | 59.93751 | 38531 ft | 446 kts | 269° |
| 2026-04-26 21:06 | 26.68467 | 59.90291 | 38783 ft | 445 kts | 269° |
| 2026-04-26 21:06 | 26.68322 | 59.86838 | 39033 ft | 444 kts | 269° |